createdAt,value
2018-07-09T00:00:13.672Z,17.48
2018-07-09T00:01:13.735Z,17.51
2018-07-09T00:03:06.735Z,17.46
2018-07-09T00:04:06.792Z,17.44
2018-07-09T00:05:59.826Z,17.42
2018-07-09T00:06:59.849Z,17.36
2018-07-09T00:08:52.848Z,17.33
2018-07-09T00:09:52.922Z,17.33
2018-07-09T00:11:45.898Z,17.30
2018-07-09T00:12:45.962Z,17.30
2018-07-09T00:14:38.962Z,17.27
2018-07-09T00:15:39.013Z,17.20
2018-07-09T00:17:32.013Z,17.23
2018-07-09T00:18:32.076Z,17.23
2018-07-09T00:20:25.076Z,17.20
2018-07-09T00:21:25.151Z,17.15
2018-07-09T00:23:18.136Z,17.08
2018-07-09T00:24:18.192Z,17.08
2018-07-09T00:26:11.186Z,17.08
2018-07-09T00:27:11.248Z,16.97
2018-07-09T00:29:04.251Z,17.11
2018-07-09T00:30:04.310Z,17.05
2018-07-09T00:31:57.305Z,16.97
2018-07-09T00:32:57.364Z,16.96
2018-07-09T00:34:50.368Z,16.90
2018-07-09T00:35:50.421Z,16.87
2018-07-09T00:37:43.415Z,16.90
2018-07-09T00:38:43.478Z,16.91
2018-07-09T00:40:36.479Z,16.87
2018-07-09T00:41:36.535Z,16.87
2018-07-09T00:43:29.539Z,16.87
2018-07-09T00:44:29.592Z,16.83
2018-07-09T00:46:22.580Z,16.81
2018-07-09T00:47:22.649Z,16.71
2018-07-09T00:49:15.646Z,16.84
2018-07-09T00:50:15.703Z,16.83
2018-07-09T00:52:08.696Z,16.75
2018-07-09T00:53:08.760Z,16.76
2018-07-09T00:55:01.760Z,16.69
2018-07-09T00:56:01.823Z,16.66
2018-07-09T00:57:54.810Z,16.66
2018-07-09T00:58:54.873Z,16.65
2018-07-09T01:00:47.874Z,16.61
2018-07-09T01:01:47.937Z,16.64
2018-07-09T01:03:40.925Z,16.60
2018-07-09T01:04:40.990Z,16.66
2018-07-09T01:06:33.987Z,16.58
2018-07-09T01:07:34.046Z,16.58
2018-07-09T01:09:27.042Z,16.49
2018-07-09T01:10:27.098Z,16.47
2018-07-09T01:12:20.090Z,16.46
2018-07-09T01:13:20.160Z,16.39
2018-07-09T01:15:13.154Z,16.43
2018-07-09T01:16:13.227Z,16.42
2018-07-09T01:18:06.204Z,16.47
2018-07-09T01:19:06.269Z,16.49
2018-07-09T01:20:59.264Z,16.41
2018-07-09T01:21:59.322Z,16.36
2018-07-09T01:23:52.335Z,16.42
2018-07-09T01:24:52.380Z,16.43
2018-07-09T01:26:45.369Z,16.47
2018-07-09T01:27:45.435Z,16.43
2018-07-09T01:29:38.429Z,16.42
2018-07-09T01:30:38.487Z,16.32
2018-07-09T01:32:31.477Z,16.35
2018-07-09T01:33:31.541Z,16.38
2018-07-09T01:35:24.539Z,16.33
2018-07-09T01:36:24.602Z,16.35
2018-07-09T01:38:17.594Z,16.42
2018-07-09T01:39:17.659Z,16.20
2018-07-09T01:41:10.657Z,16.32
2018-07-09T01:42:10.714Z,16.24
2018-07-09T01:44:03.710Z,16.13
2018-07-09T01:45:03.771Z,16.17
2018-07-09T01:46:56.768Z,16.05
2018-07-09T01:47:56.840Z,16.05
2018-07-09T01:49:49.817Z,16.02
2018-07-09T01:50:49.894Z,16.08
2018-07-09T01:52:42.878Z,15.92
2018-07-09T01:53:42.933Z,15.98
2018-07-09T01:55:35.933Z,15.80
2018-07-09T01:56:35.993Z,15.75
2018-07-09T01:58:28.990Z,15.90
2018-07-09T01:59:29.054Z,15.79
2018-07-09T02:01:22.048Z,15.88
2018-07-09T02:02:22.107Z,15.90
2018-07-09T02:04:15.098Z,15.76
2018-07-09T02:05:15.165Z,15.79
2018-07-09T02:07:08.160Z,15.76
2018-07-09T02:08:08.217Z,15.79
2018-07-09T02:10:01.208Z,15.68
2018-07-09T02:11:01.272Z,15.68
2018-07-09T02:12:54.269Z,15.77
2018-07-09T02:13:54.325Z,15.72
2018-07-09T02:15:47.327Z,15.72
2018-07-09T02:16:47.379Z,15.73
2018-07-09T02:18:40.372Z,15.70
2018-07-09T02:19:40.439Z,15.70
2018-07-09T02:21:33.435Z,15.79
2018-07-09T02:22:33.490Z,15.68
2018-07-09T02:24:26.488Z,15.65
2018-07-09T02:25:26.550Z,15.70
2018-07-09T02:27:19.548Z,15.68
2018-07-09T02:28:19.604Z,15.72
2018-07-09T02:30:12.596Z,15.68
2018-07-09T02:31:12.660Z,15.65
2018-07-09T02:33:05.661Z,15.67
2018-07-09T02:34:05.726Z,15.62
2018-07-09T02:35:58.718Z,15.54
2018-07-09T02:36:58.777Z,15.57
2018-07-09T02:38:51.773Z,15.49
2018-07-09T02:39:51.835Z,15.52
2018-07-09T02:41:44.837Z,15.55
2018-07-09T02:42:44.891Z,15.43
2018-07-09T02:44:37.883Z,15.43
2018-07-09T02:45:37.967Z,15.40
2018-07-09T02:47:30.945Z,15.42
2018-07-09T02:48:31.001Z,15.42
2018-07-09T02:50:24.006Z,15.37
2018-07-09T02:51:24.056Z,15.40
2018-07-09T02:53:17.054Z,15.31
2018-07-09T02:54:17.115Z,15.24
2018-07-09T02:56:10.118Z,15.35
2018-07-09T02:57:10.179Z,15.24
2018-07-09T02:59:03.186Z,15.29
2018-07-09T03:00:03.247Z,15.27
2018-07-09T03:01:56.242Z,15.25
2018-07-09T03:02:56.297Z,15.24
2018-07-09T03:04:49.290Z,15.28
2018-07-09T03:05:49.353Z,15.28
2018-07-09T03:07:42.348Z,15.36
2018-07-09T03:08:42.405Z,15.36
2018-07-09T03:10:35.404Z,15.39
2018-07-09T03:11:35.466Z,15.36
2018-07-09T03:13:28.464Z,15.43
2018-07-09T03:14:28.523Z,15.42
2018-07-09T03:16:21.519Z,15.44
2018-07-09T03:17:21.582Z,15.33
2018-07-09T03:19:14.608Z,15.25
2018-07-09T03:20:14.638Z,15.24
2018-07-09T03:22:07.635Z,15.14
2018-07-09T03:23:07.693Z,15.14
2018-07-09T03:25:00.689Z,15.17
2018-07-09T03:26:00.759Z,15.09
2018-07-09T03:27:53.750Z,15.07
2018-07-09T03:28:53.810Z,14.99
2018-07-09T03:30:46.800Z,15.07
2018-07-09T03:31:46.864Z,15.10
2018-07-09T03:33:39.859Z,15.10
2018-07-09T03:34:39.914Z,15.07
2018-07-09T03:36:32.902Z,15.00
2018-07-09T03:37:32.967Z,15.03
2018-07-09T03:39:25.965Z,15.10
2018-07-09T03:40:26.021Z,15.09
2018-07-09T03:42:19.010Z,15.02
2018-07-09T03:43:19.073Z,15.02
2018-07-09T03:45:12.067Z,15.06
2018-07-09T03:46:12.125Z,14.99
2018-07-09T03:48:05.122Z,15.11
2018-07-09T03:49:05.179Z,15.09
2018-07-09T03:50:58.167Z,15.02
2018-07-09T03:51:58.231Z,15.11
2018-07-09T03:53:51.230Z,15.10
2018-07-09T03:54:51.289Z,15.10
2018-07-09T03:56:44.284Z,15.19
2018-07-09T03:57:44.341Z,15.07
2018-07-09T03:59:37.335Z,15.04
2018-07-09T04:00:37.396Z,15.06
2018-07-09T04:02:30.391Z,15.10
2018-07-09T04:03:30.457Z,15.02
2018-07-09T04:05:23.451Z,15.09
2018-07-09T04:06:23.505Z,15.06
2018-07-09T04:08:16.502Z,15.09
2018-07-09T04:09:16.558Z,15.10
2018-07-09T04:11:10.068Z,15.14
2018-07-09T04:12:10.119Z,15.09
2018-07-09T04:14:03.161Z,15.17
2018-07-09T04:15:03.173Z,15.17
2018-07-09T04:16:56.170Z,15.11
2018-07-09T04:17:56.231Z,15.11
2018-07-09T04:19:49.239Z,15.14
2018-07-09T04:20:49.294Z,15.18
2018-07-09T04:22:42.278Z,15.22
2018-07-09T04:23:42.340Z,15.27
2018-07-09T04:25:35.340Z,15.24
2018-07-09T04:26:35.397Z,15.21
2018-07-09T04:28:28.393Z,15.29
2018-07-09T04:29:28.453Z,15.29
2018-07-09T04:31:21.443Z,15.33
2018-07-09T04:32:21.506Z,15.46
2018-07-09T04:34:14.563Z,15.44
2018-07-09T04:35:14.564Z,15.36
2018-07-09T04:37:07.597Z,15.40
2018-07-09T04:38:07.619Z,15.39
2018-07-09T04:40:00.614Z,15.42
2018-07-09T04:41:00.673Z,15.52
2018-07-09T04:42:53.681Z,15.59
2018-07-09T04:43:53.735Z,15.54
2018-07-09T04:45:46.732Z,15.51
2018-07-09T04:46:46.783Z,15.54
2018-07-09T04:48:39.777Z,15.59
2018-07-09T04:49:39.840Z,15.65
2018-07-09T04:51:32.841Z,15.62
2018-07-09T04:52:32.890Z,15.62
2018-07-09T04:54:25.898Z,15.67
2018-07-09T04:55:25.955Z,15.68
2018-07-09T04:57:18.947Z,15.67
2018-07-09T04:58:19.010Z,15.75
2018-07-09T05:00:12.012Z,15.76
2018-07-09T05:01:12.065Z,15.88
2018-07-09T05:03:05.069Z,15.77
2018-07-09T05:04:05.133Z,15.94
2018-07-09T05:05:58.124Z,15.92
2018-07-09T05:06:58.180Z,15.88
2018-07-09T05:08:51.182Z,15.92
2018-07-09T05:09:51.248Z,15.95
2018-07-09T05:11:44.762Z,16.00
2018-07-09T05:12:44.817Z,16.16
2018-07-09T05:14:37.847Z,16.08
2018-07-09T05:15:37.890Z,16.09
2018-07-09T05:17:30.873Z,16.10
2018-07-09T05:18:30.926Z,16.15
2018-07-09T05:20:23.958Z,16.23
2018-07-09T05:21:23.990Z,16.21
2018-07-09T05:23:17.042Z,16.26
2018-07-09T05:24:17.038Z,16.31
2018-07-09T05:26:10.040Z,16.31
2018-07-09T05:27:10.099Z,16.41
2018-07-09T05:29:03.090Z,16.47
2018-07-09T05:30:03.155Z,16.56
2018-07-09T05:31:57.667Z,16.53
2018-07-09T05:32:57.724Z,16.54
2018-07-09T05:34:50.715Z,16.68
2018-07-09T05:35:50.779Z,16.66
2018-07-09T05:37:43.780Z,16.74
2018-07-09T05:38:43.836Z,16.74
2018-07-09T05:40:36.842Z,16.89
2018-07-09T05:41:36.895Z,16.89
2018-07-09T05:43:29.948Z,17.11
2018-07-09T05:44:29.958Z,17.22
2018-07-09T05:46:22.962Z,17.31
2018-07-09T05:47:23.011Z,17.39
2018-07-09T05:49:16.012Z,17.63
2018-07-09T05:50:16.070Z,17.65
2018-07-09T05:52:09.075Z,17.63
2018-07-09T05:53:09.126Z,17.64
2018-07-09T05:55:02.136Z,17.72
2018-07-09T05:56:02.201Z,17.83
2018-07-09T05:57:55.220Z,17.95
2018-07-09T05:58:55.265Z,18.04
2018-07-09T06:00:48.262Z,18.53
2018-07-09T06:01:48.316Z,18.68
2018-07-09T06:03:41.311Z,18.95
2018-07-09T06:04:41.381Z,19.12
2018-07-09T06:06:34.371Z,19.30
2018-07-09T06:07:34.429Z,19.30
2018-07-09T06:09:27.423Z,19.34
2018-07-09T06:10:27.493Z,19.48
2018-07-09T06:12:20.487Z,19.31
2018-07-09T06:13:20.543Z,19.40
2018-07-09T06:15:13.548Z,19.33
2018-07-09T06:16:13.603Z,19.39
2018-07-09T06:18:06.601Z,19.30
2018-07-09T06:19:06.671Z,19.27
2018-07-09T06:20:59.656Z,19.22
2018-07-09T06:21:59.732Z,19.27
2018-07-09T06:23:52.715Z,19.09
2018-07-09T06:24:52.850Z,19.14
2018-07-09T06:26:45.863Z,19.14
2018-07-09T06:27:45.930Z,19.14
2018-07-09T06:29:38.920Z,19.22
2018-07-09T06:30:38.981Z,19.26
2018-07-09T06:32:31.982Z,19.39
2018-07-09T06:33:32.086Z,19.34
2018-07-09T06:35:25.046Z,19.52
2018-07-09T06:36:25.095Z,19.54
2018-07-09T06:38:18.629Z,19.76
2018-07-09T06:39:18.662Z,19.82
2018-07-09T06:41:11.707Z,19.92
2018-07-09T06:42:11.720Z,19.95
2018-07-09T06:44:04.721Z,19.94
2018-07-09T06:45:04.781Z,20.03
2018-07-09T06:46:57.780Z,20.06
2018-07-09T06:47:57.839Z,20.21
2018-07-09T06:49:50.833Z,20.59
2018-07-09T06:50:50.897Z,20.63
2018-07-09T06:52:43.959Z,21.00
2018-07-09T06:53:43.963Z,20.90
2018-07-09T06:55:36.954Z,20.95
2018-07-09T06:56:37.035Z,21.15
2018-07-09T06:58:30.029Z,21.30
2018-07-09T06:59:30.092Z,24.01
2018-07-09T07:01:23.131Z,25.43
2018-07-09T07:02:23.220Z,25.06
2018-07-09T07:04:16.157Z,24.69
2018-07-09T07:05:16.218Z,24.65
2018-07-09T07:07:09.224Z,24.54
2018-07-09T07:08:09.290Z,23.95
2018-07-09T07:10:02.350Z,23.59
2018-07-09T07:11:02.353Z,23.32
2018-07-09T07:12:55.386Z,22.96
2018-07-09T07:13:55.423Z,23.18
2018-07-09T07:15:48.426Z,23.43
2018-07-09T07:16:48.503Z,23.76
2018-07-09T07:18:41.523Z,23.68
2018-07-09T07:19:41.561Z,23.65
2018-07-09T07:21:34.568Z,23.37
2018-07-09T07:22:34.632Z,23.12
2018-07-09T07:24:27.642Z,22.80
2018-07-09T07:25:27.704Z,22.66
2018-07-09T07:27:20.713Z,22.41
2018-07-09T07:28:20.796Z,22.20
2018-07-09T07:30:13.772Z,22.18
2018-07-09T07:31:13.834Z,22.00
2018-07-09T07:33:06.882Z,22.18
2018-07-09T07:34:06.919Z,22.28
2018-07-09T07:35:59.917Z,22.23
2018-07-09T07:36:59.984Z,22.44
2018-07-09T07:38:53.509Z,22.50
2018-07-09T07:39:53.576Z,22.62
2018-07-09T07:41:46.561Z,22.73
2018-07-09T07:42:46.623Z,22.73
2018-07-09T07:44:39.636Z,22.78
2018-07-09T07:45:39.703Z,22.91
2018-07-09T07:47:32.728Z,22.65
2018-07-09T07:48:32.780Z,22.68
2018-07-09T07:50:25.778Z,22.78
2018-07-09T07:51:25.833Z,22.75
2018-07-09T07:53:18.836Z,22.57
2018-07-09T07:54:18.903Z,22.44
2018-07-09T07:56:11.901Z,22.50
2018-07-09T07:57:11.979Z,22.43
2018-07-09T07:59:04.981Z,22.36
2018-07-09T08:00:05.033Z,22.22
2018-07-09T08:01:58.571Z,22.28
2018-07-09T08:02:58.127Z,22.30
2018-07-09T08:04:51.153Z,22.59
2018-07-09T08:05:51.175Z,22.57
2018-07-09T08:07:44.180Z,22.69
2018-07-09T08:08:44.251Z,22.62
2018-07-09T08:10:37.251Z,22.87
2018-07-09T08:11:48.564Z,22.94
2018-07-09T08:13:30.325Z,23.56
2018-07-09T08:14:30.385Z,24.24
2018-07-09T08:16:23.377Z,26.25
2018-07-09T08:17:23.452Z,27.90
2018-07-09T08:19:16.457Z,29.90
2018-07-09T08:20:16.519Z,30.78
2018-07-09T08:22:09.531Z,31.36
2018-07-09T08:23:09.622Z,31.61
2018-07-09T08:25:02.839Z,31.55
2018-07-09T08:26:02.700Z,31.34
2018-07-09T08:27:55.718Z,30.80
2018-07-09T08:28:55.772Z,30.65
2018-07-09T08:30:48.790Z,29.60
2018-07-09T08:31:48.855Z,29.41
2018-07-09T08:33:41.890Z,29.53
2018-07-09T08:34:41.944Z,30.80
2018-07-09T08:36:34.957Z,32.53
2018-07-09T08:37:35.045Z,33.86
2018-07-09T08:39:28.100Z,33.81
2018-07-09T08:40:28.120Z,33.43
2018-07-09T08:42:21.148Z,33.15
2018-07-09T08:43:21.225Z,34.18
2018-07-09T08:45:14.278Z,33.94
2018-07-09T08:46:14.330Z,34.05
2018-07-09T08:48:07.354Z,34.89
2018-07-09T08:49:07.442Z,35.36
2018-07-09T08:51:00.499Z,35.26
2018-07-09T08:52:00.527Z,34.30
2018-07-09T08:53:53.591Z,34.43
2018-07-09T08:54:53.640Z,34.43
2018-07-09T08:56:46.707Z,34.77
2018-07-09T08:57:46.740Z,34.71
2018-07-09T08:59:39.783Z,34.83
2018-07-09T09:00:39.861Z,34.85
2018-07-09T09:02:32.857Z,34.99
2018-07-09T09:03:32.935Z,35.55
2018-07-09T09:05:25.994Z,36.00
2018-07-09T09:06:26.047Z,35.70
2018-07-09T09:08:19.168Z,33.96
2018-07-09T09:09:19.149Z,33.27
2018-07-09T09:11:12.246Z,32.80
2018-07-09T09:12:12.299Z,32.11
2018-07-09T09:14:05.302Z,31.43
2018-07-09T09:15:05.422Z,30.88
2018-07-09T09:16:58.395Z,29.76
2018-07-09T09:17:58.457Z,29.41
2018-07-09T09:19:51.503Z,28.82
2018-07-09T09:20:51.579Z,28.57
2018-07-09T09:22:44.573Z,27.86
2018-07-09T09:23:44.653Z,27.40
2018-07-09T09:25:37.776Z,27.17
2018-07-09T09:26:37.737Z,27.05
2018-07-09T09:28:30.790Z,26.96
2018-07-09T09:29:30.849Z,26.95
2018-07-09T09:31:23.957Z,26.93
2018-07-09T09:32:23.931Z,26.99
2018-07-09T09:34:16.969Z,26.95
2018-07-09T09:35:17.014Z,26.84
2018-07-09T09:37:10.043Z,26.92
2018-07-09T09:38:10.104Z,27.22
2018-07-09T09:40:03.117Z,27.18
2018-07-09T09:41:03.196Z,27.15
2018-07-09T09:42:56.199Z,27.22
2018-07-09T09:43:56.269Z,27.30
2018-07-09T09:45:49.288Z,27.67
2018-07-09T09:46:49.355Z,27.54
2018-07-09T09:48:42.373Z,27.40
2018-07-09T09:49:42.446Z,27.44
2018-07-09T09:51:35.457Z,27.32
2018-07-09T09:52:35.541Z,27.26
2018-07-09T09:54:28.544Z,27.08
2018-07-09T09:55:28.609Z,27.07
2018-07-09T09:57:21.666Z,26.96
2018-07-09T09:58:21.695Z,26.84
2018-07-09T10:00:14.716Z,26.38
2018-07-09T10:01:14.781Z,26.31
2018-07-09T10:03:07.801Z,26.60
2018-07-09T10:04:07.861Z,26.75
2018-07-09T10:06:00.891Z,26.81
2018-07-09T10:07:00.928Z,26.90
2018-07-09T10:08:53.944Z,26.70
2018-07-09T10:09:54.018Z,26.45
2018-07-09T10:11:47.019Z,26.23
2018-07-09T10:12:47.112Z,26.29
2018-07-09T10:14:40.113Z,26.29
2018-07-09T10:15:40.164Z,26.26
2018-07-09T10:17:33.218Z,26.19
2018-07-09T10:18:33.282Z,26.22
2018-07-09T10:20:26.303Z,26.34
2018-07-09T10:21:26.436Z,26.34
2018-07-09T10:23:19.448Z,26.43
2018-07-09T10:24:19.449Z,26.40
2018-07-09T10:26:12.459Z,26.78
2018-07-09T10:27:12.526Z,26.99
2018-07-09T10:29:05.547Z,26.97
2018-07-09T10:30:05.606Z,27.14
2018-07-09T10:31:58.616Z,27.51
2018-07-09T10:32:58.681Z,27.67
2018-07-09T10:34:51.700Z,28.07
2018-07-09T10:35:51.758Z,27.98
2018-07-09T10:37:44.803Z,27.64
2018-07-09T10:38:44.844Z,27.22
2018-07-09T10:40:37.867Z,26.45
2018-07-09T10:41:37.946Z,26.18
2018-07-09T10:43:31.024Z,26.05
2018-07-09T10:44:31.015Z,25.90
2018-07-09T10:46:24.009Z,25.66
2018-07-09T10:47:24.093Z,25.60
2018-07-09T10:49:17.075Z,25.69
2018-07-09T10:50:17.151Z,25.63
2018-07-09T10:52:10.161Z,25.70
2018-07-09T10:53:10.224Z,25.51
2018-07-09T10:55:03.234Z,25.44
2018-07-09T10:56:03.303Z,25.35
2018-07-09T10:57:56.319Z,25.29
2018-07-09T10:58:56.382Z,25.14
2018-07-09T11:00:49.416Z,25.07
2018-07-09T11:01:49.472Z,25.07
2018-07-09T11:03:42.488Z,24.93
2018-07-09T11:04:42.549Z,24.92
2018-07-09T11:06:35.547Z,24.73
2018-07-09T11:07:35.611Z,24.78
2018-07-09T11:09:28.617Z,24.68
2018-07-09T11:10:28.681Z,24.65
2018-07-09T11:12:21.693Z,24.57
2018-07-09T11:13:21.759Z,24.53
2018-07-09T11:15:14.770Z,24.55
2018-07-09T11:16:14.882Z,24.50
2018-07-09T11:18:07.852Z,24.60
2018-07-09T11:19:07.905Z,24.51
2018-07-09T11:21:00.948Z,24.54
2018-07-09T11:22:00.995Z,24.50
2018-07-09T11:23:53.994Z,24.45
2018-07-09T11:24:54.063Z,24.38
2018-07-09T11:26:47.073Z,24.29
2018-07-09T11:27:47.217Z,24.36
2018-07-09T11:29:40.153Z,24.45
2018-07-09T11:30:40.211Z,24.51
2018-07-09T11:32:33.238Z,24.76
2018-07-09T11:33:33.280Z,24.84
2018-07-09T11:35:26.285Z,24.84
2018-07-09T11:36:26.419Z,24.76
2018-07-09T11:38:19.885Z,25.06
2018-07-09T11:39:19.932Z,25.14
2018-07-09T11:41:12.944Z,25.51
2018-07-09T11:42:13.043Z,25.70
2018-07-09T11:44:06.016Z,25.72
2018-07-09T11:45:06.080Z,25.81
2018-07-09T11:46:59.092Z,26.16
2018-07-09T11:47:59.157Z,26.25
2018-07-09T11:49:52.159Z,26.71
2018-07-09T11:50:52.231Z,26.85
2018-07-09T11:52:45.239Z,27.10
2018-07-09T11:53:45.302Z,27.07
2018-07-09T11:55:38.308Z,27.17
2018-07-09T11:56:38.385Z,26.89
2018-07-09T11:58:31.474Z,26.81
2018-07-09T11:59:31.486Z,26.62
2018-07-09T12:01:24.493Z,26.37
2018-07-09T12:02:24.562Z,26.28
2018-07-09T12:04:17.598Z,26.37
2018-07-09T12:05:17.637Z,26.55
2018-07-09T12:07:10.665Z,26.40
2018-07-09T12:08:10.715Z,26.36
2018-07-09T12:10:03.722Z,26.26
2018-07-09T12:11:03.794Z,26.22
2018-07-09T12:12:56.804Z,26.19
2018-07-09T12:13:56.872Z,26.25
2018-07-09T12:15:49.894Z,26.07
2018-07-09T12:16:49.947Z,25.99
2018-07-09T12:18:43.475Z,25.96
2018-07-09T12:19:43.533Z,25.88
2018-07-09T12:21:36.549Z,25.73
2018-07-09T12:22:36.614Z,25.68
2018-07-09T12:24:29.629Z,25.68
2018-07-09T12:25:29.692Z,25.62
2018-07-09T12:27:22.699Z,25.70
2018-07-09T12:28:22.766Z,25.70
2018-07-09T12:30:15.775Z,25.95
2018-07-09T12:31:15.838Z,25.95
2018-07-09T12:33:08.848Z,26.05
2018-07-09T12:34:08.912Z,26.26
2018-07-09T12:36:01.933Z,26.29
2018-07-09T12:37:01.992Z,26.31
2018-07-09T12:38:55.037Z,26.48
2018-07-09T12:39:55.180Z,26.47
2018-07-09T12:41:48.099Z,26.52
2018-07-09T12:42:48.201Z,26.53
2018-07-09T12:44:41.177Z,26.38
2018-07-09T12:45:41.254Z,26.36
2018-07-09T12:47:34.265Z,26.48
2018-07-09T12:48:34.345Z,26.70
2018-07-09T12:50:27.667Z,26.81
2018-07-09T12:51:27.430Z,26.95
2018-07-09T12:53:20.413Z,26.88
2018-07-09T12:54:20.654Z,26.90
2018-07-09T12:56:13.480Z,26.88
2018-07-09T12:57:13.557Z,26.90
2018-07-09T12:59:06.579Z,26.85
2018-07-09T13:00:06.679Z,26.89
2018-07-09T13:01:59.636Z,26.88
2018-07-09T13:02:59.704Z,26.81
2018-07-09T13:04:52.712Z,26.89
2018-07-09T13:05:52.777Z,26.85
2018-07-09T13:07:45.782Z,27.17
2018-07-09T13:08:45.849Z,27.18
2018-07-09T13:10:38.865Z,26.88
2018-07-09T13:11:38.928Z,26.83
2018-07-09T13:13:31.947Z,26.07
2018-07-09T13:14:32.027Z,25.96
2018-07-09T13:16:25.009Z,25.51
2018-07-09T13:17:25.082Z,25.40
2018-07-09T13:19:18.082Z,25.23
2018-07-09T13:20:18.144Z,25.13
2018-07-09T13:22:11.152Z,25.01
2018-07-09T13:23:11.217Z,24.95
2018-07-09T13:25:04.229Z,24.78
2018-07-09T13:26:04.286Z,24.80
2018-07-09T13:27:57.295Z,24.68
2018-07-09T13:28:57.365Z,24.65
2018-07-09T13:30:50.375Z,24.65
2018-07-09T13:31:50.432Z,24.68
2018-07-09T13:33:43.452Z,24.63
2018-07-09T13:34:43.507Z,24.76
2018-07-09T13:36:37.022Z,24.78
2018-07-09T13:37:37.083Z,24.74
2018-07-09T13:39:30.092Z,24.99
2018-07-09T13:40:30.192Z,25.07
2018-07-09T13:42:23.468Z,25.41
2018-07-09T13:43:23.231Z,25.63
2018-07-09T13:45:16.446Z,25.68
2018-07-09T13:46:16.447Z,25.81
2018-07-09T13:48:09.507Z,25.98
2018-07-09T13:49:09.441Z,26.06
2018-07-09T13:51:02.552Z,26.26
2018-07-09T13:52:02.501Z,26.29
2018-07-09T13:53:55.554Z,26.25
2018-07-09T13:54:55.597Z,26.10
2018-07-09T13:56:48.554Z,26.05
2018-07-09T13:57:48.730Z,25.90
2018-07-09T13:59:41.942Z,25.70
2018-07-09T14:00:41.643Z,25.58
2018-07-09T14:02:34.657Z,25.44
2018-07-09T14:03:34.712Z,25.38
2018-07-09T14:05:28.028Z,25.25
2018-07-09T14:06:28.124Z,25.08
2018-07-09T14:08:20.794Z,24.93
2018-07-09T14:09:20.856Z,24.81
2018-07-09T14:11:14.381Z,24.73
2018-07-09T14:12:14.548Z,24.69
2018-07-09T14:14:08.651Z,24.57
2018-07-09T14:15:08.269Z,24.68
2018-07-09T14:17:01.048Z,24.68
2018-07-09T14:18:01.123Z,24.63
2018-07-09T14:19:54.111Z,24.63
2018-07-09T14:20:54.178Z,24.57
2018-07-09T14:22:47.212Z,24.57
2018-07-09T14:23:47.250Z,24.58
2018-07-09T14:25:40.255Z,24.69
2018-07-09T14:26:40.727Z,24.77
2018-07-09T14:28:33.356Z,24.78
2018-07-09T14:29:33.426Z,24.89
2018-07-09T14:31:26.515Z,25.07
2018-07-09T14:32:26.454Z,25.01
2018-07-09T14:34:19.464Z,25.13
2018-07-09T14:35:19.529Z,25.18
2018-07-09T14:37:12.542Z,25.36
2018-07-09T14:38:12.630Z,25.41
2018-07-09T14:40:05.618Z,25.53
2018-07-09T14:41:05.699Z,25.65
2018-07-09T14:42:58.711Z,25.46
2018-07-09T14:43:58.757Z,25.63
2018-07-09T14:45:51.775Z,25.69
2018-07-09T14:46:51.833Z,25.69
2018-07-09T14:48:44.908Z,25.84
2018-07-09T14:49:44.909Z,25.75
2018-07-09T14:51:37.921Z,25.83
2018-07-09T14:52:37.972Z,25.81
2018-07-09T14:54:31.023Z,25.75
2018-07-09T14:55:31.040Z,25.68
2018-07-09T14:57:24.048Z,25.72
2018-07-09T14:58:24.108Z,25.69
2018-07-09T15:00:17.113Z,25.66
2018-07-09T15:01:17.221Z,25.62
2018-07-09T15:03:10.221Z,25.63
2018-07-09T15:04:10.293Z,25.72
2018-07-09T15:06:03.261Z,25.66
2018-07-09T15:07:03.323Z,25.80
2018-07-09T15:08:56.325Z,25.66
2018-07-09T15:09:56.435Z,25.54
2018-07-09T15:11:49.411Z,25.22
2018-07-09T15:12:49.473Z,25.18
2018-07-09T15:14:42.476Z,24.99
2018-07-09T15:15:42.559Z,25.08
2018-07-09T15:17:35.558Z,25.03
2018-07-09T15:18:35.639Z,24.93
2018-07-09T15:20:28.621Z,25.03
2018-07-09T15:21:28.689Z,25.08
2018-07-09T15:23:21.714Z,25.03
2018-07-09T15:24:21.772Z,24.89
2018-07-09T15:26:14.798Z,24.93
2018-07-09T15:27:14.861Z,25.01
2018-07-09T15:29:07.871Z,25.13
2018-07-09T15:30:07.953Z,25.25
2018-07-09T15:32:00.954Z,25.35
2018-07-09T15:33:01.015Z,25.28
2018-07-09T15:34:54.030Z,25.44
2018-07-09T15:35:54.083Z,25.35
2018-07-09T15:37:47.095Z,25.23
2018-07-09T15:38:47.150Z,25.14
2018-07-09T15:40:40.150Z,24.95
2018-07-09T15:41:40.222Z,24.99
2018-07-09T15:43:33.246Z,24.80
2018-07-09T15:44:33.309Z,24.74
2018-07-09T15:46:26.312Z,24.45
2018-07-09T15:47:26.370Z,24.38
2018-07-09T15:49:19.376Z,24.29
2018-07-09T15:50:19.444Z,24.20
2018-07-09T15:52:12.452Z,23.99
2018-07-09T15:53:12.516Z,23.99
2018-07-09T15:55:05.520Z,23.95
2018-07-09T15:56:05.591Z,23.87
2018-07-09T15:57:58.613Z,23.93
2018-07-09T15:58:58.661Z,23.87
2018-07-09T16:00:51.678Z,23.95
2018-07-09T16:01:51.738Z,23.96
2018-07-09T16:03:44.744Z,23.96
2018-07-09T16:04:44.808Z,24.03
2018-07-09T16:06:37.814Z,23.98
2018-07-09T16:07:37.877Z,24.03
2018-07-09T16:09:30.886Z,23.95
2018-07-09T16:10:30.977Z,23.88
2018-07-09T16:12:24.470Z,23.99
2018-07-09T16:13:24.527Z,24.10
2018-07-09T16:15:17.528Z,24.13
2018-07-09T16:16:17.596Z,24.21
2018-07-09T16:18:10.601Z,24.33
2018-07-09T16:19:10.661Z,24.35
2018-07-09T16:21:03.671Z,24.54
2018-07-09T16:22:03.745Z,24.51
2018-07-09T16:23:56.742Z,24.58
2018-07-09T16:24:56.805Z,24.54
2018-07-09T16:26:49.808Z,24.80
2018-07-09T16:27:49.877Z,24.92
2018-07-09T16:29:42.886Z,25.10
2018-07-09T16:30:42.947Z,25.10
2018-07-09T16:32:35.960Z,24.92
2018-07-09T16:33:36.024Z,24.80
2018-07-09T16:35:29.026Z,24.81
2018-07-09T16:36:29.197Z,24.86
2018-07-09T16:38:22.105Z,24.80
2018-07-09T16:39:22.161Z,24.74
2018-07-09T16:41:15.162Z,24.63
2018-07-09T16:42:15.233Z,24.36
2018-07-09T16:44:08.244Z,24.24
2018-07-09T16:45:08.401Z,24.32
2018-07-09T16:47:01.397Z,24.11
2018-07-09T16:48:01.496Z,24.14
2018-07-09T16:49:54.387Z,24.14
2018-07-09T16:50:54.511Z,24.08
2018-07-09T16:52:47.522Z,24.24
2018-07-09T16:53:47.540Z,24.23
2018-07-09T16:55:40.542Z,24.24
2018-07-09T16:56:40.606Z,24.32
2018-07-09T16:58:33.618Z,24.21
2018-07-09T16:59:33.665Z,24.21
2018-07-09T17:01:26.673Z,24.13
2018-07-09T17:02:26.737Z,24.24
2018-07-09T17:04:19.743Z,24.10
2018-07-09T17:05:19.804Z,23.99
2018-07-09T17:07:12.817Z,23.76
2018-07-09T17:08:12.882Z,23.69
2018-07-09T17:10:05.880Z,23.76
2018-07-09T17:11:05.939Z,23.76
2018-07-09T17:12:58.943Z,23.68
2018-07-09T17:13:59.001Z,23.66
2018-07-09T17:15:52.017Z,23.56
2018-07-09T17:16:52.085Z,23.50
2018-07-09T17:18:45.106Z,23.58
2018-07-09T17:19:45.163Z,23.56
2018-07-09T17:21:38.224Z,23.40
2018-07-09T17:22:38.227Z,23.36
2018-07-09T17:24:31.272Z,23.15
2018-07-09T17:25:31.292Z,23.18
2018-07-09T17:27:24.366Z,22.99
2018-07-09T17:28:24.357Z,23.00
2018-07-09T17:30:17.370Z,22.84
2018-07-09T17:31:17.432Z,22.94
2018-07-09T17:33:10.438Z,22.96
2018-07-09T17:34:10.498Z,22.87
2018-07-09T17:36:03.514Z,22.57
2018-07-09T17:37:03.564Z,22.44
2018-07-09T17:38:56.633Z,22.13
2018-07-09T17:39:56.639Z,22.04
2018-07-09T17:41:49.637Z,21.95
2018-07-09T17:42:49.703Z,21.92
2018-07-09T17:44:42.713Z,21.79
2018-07-09T17:45:42.772Z,21.75
2018-07-09T17:47:35.772Z,21.72
2018-07-09T17:48:35.837Z,21.67
2018-07-09T17:50:28.845Z,21.70
2018-07-09T17:51:28.906Z,21.62
2018-07-09T17:53:21.902Z,21.69
2018-07-09T17:54:21.966Z,21.72
2018-07-09T17:56:14.973Z,21.57
2018-07-09T17:57:15.030Z,21.61
2018-07-09T17:59:08.035Z,21.50
2018-07-09T18:00:08.093Z,21.57
2018-07-09T18:02:01.096Z,21.51
2018-07-09T18:03:01.155Z,21.48
2018-07-09T18:04:54.157Z,21.45
2018-07-09T18:05:54.220Z,21.39
2018-07-09T18:07:47.222Z,21.43
2018-07-09T18:08:47.287Z,21.40
2018-07-09T18:10:40.414Z,21.36
2018-07-09T18:11:40.358Z,21.36
2018-07-09T18:13:33.372Z,21.37
2018-07-09T18:14:33.429Z,21.46
2018-07-09T18:16:26.426Z,21.48
2018-07-09T18:17:26.512Z,21.48
2018-07-09T18:19:19.500Z,21.43
2018-07-09T18:20:19.556Z,21.40
2018-07-09T18:22:12.553Z,21.39
2018-07-09T18:23:12.618Z,21.30
2018-07-09T18:25:05.629Z,21.21
2018-07-09T18:26:05.686Z,21.17
2018-07-09T18:27:58.682Z,20.97
2018-07-09T18:28:58.814Z,20.99
2018-07-09T18:30:51.752Z,20.97
2018-07-09T18:31:51.805Z,20.84
2018-07-09T18:33:44.813Z,20.82